Mohe, China
Current Conditions -  °F | °C
As of 12:00 PM on Wednesday 26 Nov 2014 (Local Time) from UHBB Reporting Station
Broken Clouds Broken Clouds  
Wind Chill: 18°   Ceiling: 10000
Heat Index: 27°   Visibility: 6mi
Dew Point: 21°   Wind: 9mph
Humidity: 80%   Direction: 140°SE
Pressure: 29.47"   Gusts: NA
Location:  53.13°N, 122.52°E
Report Text: UHBB 260400Z 14004MPS 120V190 9999 FEW006 SCT033CB BKN100M03/M06 Q0998 NOSIG RMK QFE731/0975 36410250
Loading
Personal Weather Stations






























Interactive Weather Map New forecast layout! Learn more

10-Day Weather Forecast

Advertisements
Track Severe Weather on mobile